Three Stars — 3ELI2 — position and weather

sailwx.info

Track history (hours):
 
Tides and Currents Weather Stations Pressure Air Temp Water Temp Dewpoint Dewpoint Depression Visibility Wind Speed Wind Dir Waves Ship Positions

Three Stars

Last reported at 2017-Feb-08 20:33 UTC. Time now 2017-Feb-24 05:57 UTC.
Position S 33°05' E 152°18'.
Warning: this ship's position is 15 days out of date.

Length 225 m; draft 14 m.

Type: Cargo ship. MMSI: 372950000.

Date/timePositionNaut miles runAvg speedWind from/ knotsBaromVisibWave heightAir tempDewpointWater temp
2017-Feb-08 20:33S 33°05' E 152°18'1010.2
2017-Feb-08 19:34S 33°01' E 152°07'1010.4
2017-Feb-08 18:33S 32°58' E 151°55'7 7.0
2017-Feb-08 17:34S 32°55' E 151°48'3 2.0
2017-Feb-08 16:10S 32°53' E 151°46'0 0.0
2017-Feb-08 15:28S 32°53' E 151°46'0 0.0
2017-Feb-08 14:28S 32°53' E 151°46'0 0.0
2017-Feb-08 13:28S 32°53' E 151°46'0 0.0
2017-Feb-08 12:04S 32°53' E 151°46'0 0.0
2017-Feb-08 11:28S 32°53' E 151°46'0 0.0
2017-Feb-08 10:28S 32°53' E 151°46'0 0.0
2017-Feb-08 09:28S 32°53' E 151°46'0 0.0
2017-Feb-08 08:28S 32°53' E 151°46'0 0.0
2017-Feb-08 07:31S 32°53' E 151°46'0 0.0
2017-Feb-08 06:31S 32°53' E 151°46'0 0.0
2017-Feb-08 05:28S 32°53' E 151°46'0 0.0
2017-Feb-08 04:28S 32°53' E 151°46'0 0.0
2017-Feb-08 03:28S 32°53' E 151°46'0 0.0
2017-Feb-08 00:28S 32°53' E 151°46'0 0.0
2017-Feb-07 23:31S 32°53' E 151°46'0 0.0
2017-Feb-07 22:31S 32°53' E 151°46'0 0.0
2017-Feb-07 21:16S 32°53' E 151°46'0 0.0
2017-Feb-07 20:22S 32°53' E 151°46'0 0.0
2017-Feb-07 19:31S 32°53' E 151°46'0 0.0
2017-Feb-07 18:28S 32°53' E 151°46'0 0.0
2017-Feb-07 17:16S 32°53' E 151°46'0 0.0
2017-Feb-07 16:31S 32°53' E 151°46'0 0.0
2017-Feb-07 15:28S 32°53' E 151°46'0 0.0
2017-Feb-07 14:28S 32°53' E 151°46'0 0.0
2017-Feb-07 13:31S 32°53' E 151°46'0 0.0
2017-Feb-07 12:31S 32°53' E 151°46'0 0.0
2017-Feb-07 11:31S 32°53' E 151°46'0 0.0
2017-Feb-07 10:28S 32°53' E 151°46'0 0.0
2017-Feb-07 09:31S 32°53' E 151°46'0 0.0
2017-Feb-07 08:31S 32°53' E 151°46'2 1.6
2017-Feb-07 07:33S 32°54' E 151°46'6 6.2
2017-Feb-07 06:32S 32°58' E 151°53'4 3.8
2017-Feb-07 05:33S 33°01' E 151°49'1 0.1
2017-Feb-06 10:32S 32°60' E 151°49'7 7.3
2017-Feb-06 09:33S 32°59' E 151°58'1212.3
2017-Feb-06 08:33S 32°56' E 152°12'1413.6
2017-Feb-06 07:33S 32°53' E 152°28'1414.4
2017-Feb-06 06:33S 32°49' E 152°44'1414.0
2017-Feb-06 05:33S 32°41' E 152°58'1312.7
2017-Feb-06 04:33S 32°36' E 153°12'1212.2
2017-Feb-06 03:33S 32°29' E 153°24'3811.4
2017-Feb-06 00:16S 31°59' E 153°50'912.2
2017-Feb-05 23:33S 31°51' E 153°53'1111.1
2017-Feb-05 22:33S 31°40' E 153°55'1411.9
2017-Feb-05 21:21S 31°26' E 153°59'1011.7
2017-Feb-05 20:31S 31°16' E 154°02'3712.1
2017-Feb-05 17:30S 30°41' E 154°12'1412.7
2017-Feb-05 16:25S 30°27' E 154°15'1112.2
2017-Feb-05 15:33S 30°17' E 154°18'1412.4
2017-Feb-05 14:23S 30°03' E 154°22'  
Track history (hours):
 
Tides and Currents Weather Stations Pressure Air Temp Water Temp Dewpoint Dewpoint Depression Visibility Wind Speed Wind Dir Waves Ship Positions

Three Stars

Last reported at 2017-Feb-08 20:33 UTC. Time now 2017-Feb-24 05:57 UTC.
Position S 33°05' E 152°18'.
Warning: this ship's position is 15 days out of date.

Length 225 m; draft 14 m.

Type: Cargo ship. MMSI: 372950000.

Date/timePositionNaut miles runAvg speedWind from/ knotsBaromVisibWave heightAir tempDewpointWater temp
2017-Feb-08 20:33S 33°05' E 152°18'1010.2
2017-Feb-08 19:34S 33°01' E 152°07'1010.4
2017-Feb-08 18:33S 32°58' E 151°55'7 7.0
2017-Feb-08 17:34S 32°55' E 151°48'3 2.0
2017-Feb-08 16:10S 32°53' E 151°46'0 0.0
2017-Feb-08 15:28S 32°53' E 151°46'0 0.0
2017-Feb-08 14:28S 32°53' E 151°46'0 0.0
2017-Feb-08 13:28S 32°53' E 151°46'0 0.0
2017-Feb-08 12:04S 32°53' E 151°46'0 0.0
2017-Feb-08 11:28S 32°53' E 151°46'0 0.0
2017-Feb-08 10:28S 32°53' E 151°46'0 0.0
2017-Feb-08 09:28S 32°53' E 151°46'0 0.0
2017-Feb-08 08:28S 32°53' E 151°46'0 0.0
2017-Feb-08 07:31S 32°53' E 151°46'0 0.0
2017-Feb-08 06:31S 32°53' E 151°46'0 0.0
2017-Feb-08 05:28S 32°53' E 151°46'0 0.0
2017-Feb-08 04:28S 32°53' E 151°46'0 0.0
2017-Feb-08 03:28S 32°53' E 151°46'0 0.0
2017-Feb-08 00:28S 32°53' E 151°46'0 0.0
2017-Feb-07 23:31S 32°53' E 151°46'0 0.0
2017-Feb-07 22:31S 32°53' E 151°46'0 0.0
2017-Feb-07 21:16S 32°53' E 151°46'0 0.0
2017-Feb-07 20:22S 32°53' E 151°46'0 0.0
2017-Feb-07 19:31S 32°53' E 151°46'0 0.0
2017-Feb-07 18:28S 32°53' E 151°46'0 0.0
2017-Feb-07 17:16S 32°53' E 151°46'0 0.0
2017-Feb-07 16:31S 32°53' E 151°46'0 0.0
2017-Feb-07 15:28S 32°53' E 151°46'0 0.0
2017-Feb-07 14:28S 32°53' E 151°46'0 0.0
2017-Feb-07 13:31S 32°53' E 151°46'0 0.0
2017-Feb-07 12:31S 32°53' E 151°46'0 0.0
2017-Feb-07 11:31S 32°53' E 151°46'0 0.0
2017-Feb-07 10:28S 32°53' E 151°46'0 0.0
2017-Feb-07 09:31S 32°53' E 151°46'0 0.0
2017-Feb-07 08:31S 32°53' E 151°46'2 1.6
2017-Feb-07 07:33S 32°54' E 151°46'6 6.2
2017-Feb-07 06:32S 32°58' E 151°53'4 3.8
2017-Feb-07 05:33S 33°01' E 151°49'1 0.1
2017-Feb-06 10:32S 32°60' E 151°49'7 7.3
2017-Feb-06 09:33S 32°59' E 151°58'1212.3
2017-Feb-06 08:33S 32°56' E 152°12'1413.6
2017-Feb-06 07:33S 32°53' E 152°28'1414.4
2017-Feb-06 06:33S 32°49' E 152°44'1414.0
2017-Feb-06 05:33S 32°41' E 152°58'1312.7
2017-Feb-06 04:33S 32°36' E 153°12'1212.2
2017-Feb-06 03:33S 32°29' E 153°24'3811.4
2017-Feb-06 00:16S 31°59' E 153°50'912.2
2017-Feb-05 23:33S 31°51' E 153°53'1111.1
2017-Feb-05 22:33S 31°40' E 153°55'1411.9
2017-Feb-05 21:21S 31°26' E 153°59'1011.7
2017-Feb-05 20:31S 31°16' E 154°02'3712.1
2017-Feb-05 17:30S 30°41' E 154°12'1412.7
2017-Feb-05 16:25S 30°27' E 154°15'1112.2
2017-Feb-05 15:33S 30°17' E 154°18'1412.4
2017-Feb-05 14:23S 30°03' E 154°22'  

Dump ship's entire track history